sensor_id;sensor_type;location;lat;lon;timestamp;temperature;humidity
68235;DHT22;55052;52.056;5.296;2024-02-14T00:00:45;9.40;99.90
68235;DHT22;55052;52.056;5.296;2024-02-14T00:03:12;9.50;99.90
68235;DHT22;55052;52.056;5.296;2024-02-14T00:05:39;9.50;99.90
68235;DHT22;55052;52.056;5.296;2024-02-14T00:08:08;9.50;99.90
68235;DHT22;55052;52.056;5.296;2024-02-14T00:10:34;9.50;99.90
68235;DHT22;55052;52.056;5.296;2024-02-14T00:13:01;9.50;99.90
68235;DHT22;55052;52.056;5.296;2024-02-14T00:15:29;9.50;99.90
68235;DHT22;55052;52.056;5.296;2024-02-14T00:17:56;9.50;99.90
68235;DHT22;55052;52.056;5.296;2024-02-14T00:20:23;9.50;99.90
68235;DHT22;55052;52.056;5.296;2024-02-14T00:22:51;9.60;99.90
68235;DHT22;55052;52.056;5.296;2024-02-14T00:25:18;9.60;99.90
68235;DHT22;55052;52.056;5.296;2024-02-14T00:27:46;9.60;99.90
68235;DHT22;55052;52.056;5.296;2024-02-14T00:30:13;9.60;99.90
68235;DHT22;55052;52.056;5.296;2024-02-14T00:32:40;9.60;99.90
68235;DHT22;55052;52.056;5.296;2024-02-14T00:35:07;9.60;99.90
68235;DHT22;55052;52.056;5.296;2024-02-14T00:37:35;9.70;99.90
68235;DHT22;55052;52.056;5.296;2024-02-14T00:40:02;9.70;99.90
68235;DHT22;55052;52.056;5.296;2024-02-14T00:42:28;9.70;99.90
68235;DHT22;55052;52.056;5.296;2024-02-14T00:44:55;9.70;99.90
68235;DHT22;55052;52.056;5.296;2024-02-14T00:47:22;9.80;99.90
68235;DHT22;55052;52.056;5.296;2024-02-14T00:49:49;9.80;99.90
68235;DHT22;55052;52.056;5.296;2024-02-14T00:52:16;9.80;99.90
68235;DHT22;55052;52.056;5.296;2024-02-14T00:54:43;9.80;99.90
68235;DHT22;55052;52.056;5.296;2024-02-14T00:57:10;9.90;99.90
68235;DHT22;55052;52.056;5.296;2024-02-14T00:59:38;9.80;99.90
68235;DHT22;55052;52.056;5.296;2024-02-14T01:02:05;9.90;99.90
68235;DHT22;55052;52.056;5.296;2024-02-14T01:04:32;9.90;99.90
68235;DHT22;55052;52.056;5.296;2024-02-14T01:06:59;9.90;99.90
68235;DHT22;55052;52.056;5.296;2024-02-14T01:09:26;9.90;99.90
68235;DHT22;55052;52.056;5.296;2024-02-14T01:11:53;9.90;99.90
68235;DHT22;55052;52.056;5.296;2024-02-14T01:14:20;9.90;99.90
68235;DHT22;55052;52.056;5.296;2024-02-14T01:16:48;10.00;99.90
68235;DHT22;55052;52.056;5.296;2024-02-14T01:19:15;10.00;99.90
68235;DHT22;55052;52.056;5.296;2024-02-14T01:21:42;10.00;99.90
68235;DHT22;55052;52.056;5.296;2024-02-14T01:24:09;10.00;99.90
68235;DHT22;55052;52.056;5.296;2024-02-14T01:26:36;10.10;99.90
68235;DHT22;55052;52.056;5.296;2024-02-14T01:29:03;10.10;99.90
68235;DHT22;55052;52.056;5.296;2024-02-14T01:31:31;10.10;99.90
68235;DHT22;55052;52.056;5.296;2024-02-14T01:33:58;10.10;99.90
68235;DHT22;55052;52.056;5.296;2024-02-14T01:36:26;10.10;99.90
68235;DHT22;55052;52.056;5.296;2024-02-14T01:38:53;10.00;99.90
68235;DHT22;55052;52.056;5.296;2024-02-14T01:41:19;10.10;99.90
68235;DHT22;55052;52.056;5.296;2024-02-14T01:43:48;10.10;99.90
68235;DHT22;55052;52.056;5.296;2024-02-14T01:46:14;10.20;99.90
68235;DHT22;55052;52.056;5.296;2024-02-14T01:48:42;10.20;99.90
68235;DHT22;55052;52.056;5.296;2024-02-14T01:51:11;10.20;99.90
68235;DHT22;55052;52.056;5.296;2024-02-14T01:53:39;10.20;99.90
68235;DHT22;55052;52.056;5.296;2024-02-14T01:56:07;10.20;99.90
68235;DHT22;55052;52.056;5.296;2024-02-14T01:58:34;10.20;99.90
68235;DHT22;55052;52.056;5.296;2024-02-14T02:01:01;10.30;99.90
68235;DHT22;55052;52.056;5.296;2024-02-14T02:03:29;10.30;99.90
68235;DHT22;55052;52.056;5.296;2024-02-14T02:05:59;10.30;99.90
68235;DHT22;55052;52.056;5.296;2024-02-14T02:08:27;10.30;99.90
68235;DHT22;55052;52.056;5.296;2024-02-14T02:10:54;10.30;99.90
68235;DHT22;55052;52.056;5.296;2024-02-14T02:13:20;10.30;99.90
68235;DHT22;55052;52.056;5.296;2024-02-14T02:15:47;10.40;99.90
68235;DHT22;55052;52.056;5.296;2024-02-14T02:18:14;10.40;99.90
68235;DHT22;55052;52.056;5.296;2024-02-14T02:20:42;10.40;99.90
68235;DHT22;55052;52.056;5.296;2024-02-14T02:23:12;10.40;99.90
68235;DHT22;55052;52.056;5.296;2024-02-14T02:25:42;10.40;99.90
68235;DHT22;55052;52.056;5.296;2024-02-14T02:28:09;10.40;99.90
68235;DHT22;55052;52.056;5.296;2024-02-14T02:30:37;10.40;99.90
68235;DHT22;55052;52.056;5.296;2024-02-14T02:33:04;10.50;99.90
68235;DHT22;55052;52.056;5.296;2024-02-14T02:35:33;10.50;99.90
68235;DHT22;55052;52.056;5.296;2024-02-14T02:38:00;10.50;99.90
68235;DHT22;55052;52.056;5.296;2024-02-14T02:40:27;10.50;99.90
68235;DHT22;55052;52.056;5.296;2024-02-14T02:42:54;10.50;99.90
68235;DHT22;55052;52.056;5.296;2024-02-14T02:45:21;10.50;99.90
68235;DHT22;55052;52.056;5.296;2024-02-14T02:47:48;10.50;99.90
68235;DHT22;55052;52.056;5.296;2024-02-14T02:50:18;10.50;99.90
68235;DHT22;55052;52.056;5.296;2024-02-14T02:52:47;10.60;99.90
68235;DHT22;55052;52.056;5.296;2024-02-14T02:55:14;10.60;99.90
68235;DHT22;55052;52.056;5.296;2024-02-14T02:57:45;10.60;99.90
68235;DHT22;55052;52.056;5.296;2024-02-14T03:00:13;10.60;99.90
68235;DHT22;55052;52.056;5.296;2024-02-14T03:02:40;10.60;99.90
68235;DHT22;55052;52.056;5.296;2024-02-14T03:05:12;10.60;99.90
68235;DHT22;55052;52.056;5.296;2024-02-14T03:07:45;10.60;99.90
68235;DHT22;55052;52.056;5.296;2024-02-14T03:10:13;10.60;99.90
68235;DHT22;55052;52.056;5.296;2024-02-14T03:12:41;10.60;99.90
68235;DHT22;55052;52.056;5.296;2024-02-14T03:15:08;10.70;99.90
68235;DHT22;55052;52.056;5.296;2024-02-14T03:17:37;10.60;99.90
68235;DHT22;55052;52.056;5.296;2024-02-14T03:20:04;10.70;99.90
68235;DHT22;55052;52.056;5.296;2024-02-14T03:22:44;10.70;99.90
68235;DHT22;55052;52.056;5.296;2024-02-14T03:25:19;10.70;99.90
68235;DHT22;55052;52.056;5.296;2024-02-14T03:27:47;10.70;99.90
68235;DHT22;55052;52.056;5.296;2024-02-14T03:30:16;10.70;99.90
68235;DHT22;55052;52.056;5.296;2024-02-14T03:32:45;10.70;99.90
68235;DHT22;55052;52.056;5.296;2024-02-14T03:35:13;10.80;99.90
68235;DHT22;55052;52.056;5.296;2024-02-14T03:37:45;10.80;99.90
68235;DHT22;55052;52.056;5.296;2024-02-14T03:40:14;10.80;99.90
68235;DHT22;55052;52.056;5.296;2024-02-14T03:42:41;10.80;99.90
68235;DHT22;55052;52.056;5.296;2024-02-14T03:45:09;10.90;99.90
68235;DHT22;55052;52.056;5.296;2024-02-14T03:47:36;10.90;99.90
68235;DHT22;55052;52.056;5.296;2024-02-14T03:50:07;10.90;99.90
68235;DHT22;55052;52.056;5.296;2024-02-14T03:52:34;10.90;99.90
68235;DHT22;55052;52.056;5.296;2024-02-14T03:55:02;10.90;99.90
68235;DHT22;55052;52.056;5.296;2024-02-14T03:57:29;11.00;99.90
68235;DHT22;55052;52.056;5.296;2024-02-14T03:59:59;11.00;99.90
68235;DHT22;55052;52.056;5.296;2024-02-14T04:02:28;11.00;99.90
68235;DHT22;55052;52.056;5.296;2024-02-14T04:04:55;11.00;99.90
68235;DHT22;55052;52.056;5.296;2024-02-14T04:07:22;11.00;99.90
68235;DHT22;55052;52.056;5.296;2024-02-14T04:09:49;11.00;99.90
68235;DHT22;55052;52.056;5.296;2024-02-14T04:12:15;11.10;99.90
68235;DHT22;55052;52.056;5.296;2024-02-14T04:14:42;11.10;99.90
68235;DHT22;55052;52.056;5.296;2024-02-14T04:17:09;11.10;99.90
68235;DHT22;55052;52.056;5.296;2024-02-14T04:19:38;11.10;99.90
68235;DHT22;55052;52.056;5.296;2024-02-14T04:22:05;11.10;99.90
68235;DHT22;55052;52.056;5.296;2024-02-14T04:24:35;11.10;99.90
68235;DHT22;55052;52.056;5.296;2024-02-14T04:27:02;11.20;99.90
68235;DHT22;55052;52.056;5.296;2024-02-14T04:29:31;11.20;99.90
68235;DHT22;55052;52.056;5.296;2024-02-14T04:32:00;11.20;99.90
68235;DHT22;55052;52.056;5.296;2024-02-14T04:34:27;11.20;99.90
68235;DHT22;55052;52.056;5.296;2024-02-14T04:36:54;11.30;99.90
68235;DHT22;55052;52.056;5.296;2024-02-14T04:39:21;11.30;99.90
68235;DHT22;55052;52.056;5.296;2024-02-14T04:41:48;11.30;99.90
68235;DHT22;55052;52.056;5.296;2024-02-14T04:44:27;11.30;99.90
68235;DHT22;55052;52.056;5.296;2024-02-14T04:46:54;11.30;99.90
68235;DHT22;55052;52.056;5.296;2024-02-14T04:49:22;11.30;99.90
68235;DHT22;55052;52.056;5.296;2024-02-14T04:51:49;11.40;99.90
68235;DHT22;55052;52.056;5.296;2024-02-14T04:54:16;11.30;99.90
68235;DHT22;55052;52.056;5.296;2024-02-14T04:56:43;11.30;99.90
68235;DHT22;55052;52.056;5.296;2024-02-14T04:59:10;11.40;99.90
68235;DHT22;55052;52.056;5.296;2024-02-14T05:01:37;11.40;99.90
68235;DHT22;55052;52.056;5.296;2024-02-14T05:04:04;11.40;99.90
68235;DHT22;55052;52.056;5.296;2024-02-14T05:06:31;11.30;99.90
68235;DHT22;55052;52.056;5.296;2024-02-14T05:08:58;11.40;99.90
68235;DHT22;55052;52.056;5.296;2024-02-14T05:11:25;11.40;99.90
68235;DHT22;55052;52.056;5.296;2024-02-14T05:13:52;11.40;99.90
68235;DHT22;55052;52.056;5.296;2024-02-14T05:16:21;11.40;99.90
68235;DHT22;55052;52.056;5.296;2024-02-14T05:18:49;11.40;99.90
68235;DHT22;55052;52.056;5.296;2024-02-14T05:21:20;11.40;99.90
68235;DHT22;55052;52.056;5.296;2024-02-14T05:23:48;11.40;99.90
68235;DHT22;55052;52.056;5.296;2024-02-14T05:26:15;11.40;99.90
68235;DHT22;55052;52.056;5.296;2024-02-14T05:28:42;11.40;99.90
68235;DHT22;55052;52.056;5.296;2024-02-14T05:31:09;11.40;99.90
68235;DHT22;55052;52.056;5.296;2024-02-14T05:33:35;11.40;99.90
68235;DHT22;55052;52.056;5.296;2024-02-14T05:36:03;11.40;99.90
68235;DHT22;55052;52.056;5.296;2024-02-14T05:38:30;11.40;99.90
68235;DHT22;55052;52.056;5.296;2024-02-14T05:40:57;11.30;99.90
68235;DHT22;55052;52.056;5.296;2024-02-14T05:43:23;11.40;99.90
68235;DHT22;55052;52.056;5.296;2024-02-14T05:45:50;11.40;99.90
68235;DHT22;55052;52.056;5.296;2024-02-14T05:48:18;11.40;99.90
68235;DHT22;55052;52.056;5.296;2024-02-14T05:50:45;11.40;99.90
68235;DHT22;55052;52.056;5.296;2024-02-14T05:53:12;11.40;99.90
68235;DHT22;55052;52.056;5.296;2024-02-14T05:55:39;11.40;99.90
68235;DHT22;55052;52.056;5.296;2024-02-14T05:58:06;11.40;99.90
68235;DHT22;55052;52.056;5.296;2024-02-14T06:00:33;11.50;99.90
68235;DHT22;55052;52.056;5.296;2024-02-14T06:03:02;11.40;99.90
68235;DHT22;55052;52.056;5.296;2024-02-14T06:05:32;11.50;99.90
68235;DHT22;55052;52.056;5.296;2024-02-14T06:07:58;11.50;99.90
68235;DHT22;55052;52.056;5.296;2024-02-14T06:10:25;11.40;99.90
68235;DHT22;55052;52.056;5.296;2024-02-14T06:12:53;11.50;99.90
68235;DHT22;55052;52.056;5.296;2024-02-14T06:15:19;11.50;99.90
68235;DHT22;55052;52.056;5.296;2024-02-14T06:17:46;11.50;99.90
68235;DHT22;55052;52.056;5.296;2024-02-14T06:20:14;11.50;99.90
68235;DHT22;55052;52.056;5.296;2024-02-14T06:22:41;11.50;99.90
68235;DHT22;55052;52.056;5.296;2024-02-14T06:25:19;11.50;99.90
68235;DHT22;55052;52.056;5.296;2024-02-14T06:27:46;11.50;99.90
68235;DHT22;55052;52.056;5.296;2024-02-14T06:30:13;11.50;99.90
68235;DHT22;55052;52.056;5.296;2024-02-14T06:32:40;11.50;99.90
68235;DHT22;55052;52.056;5.296;2024-02-14T06:35:07;11.50;99.90
68235;DHT22;55052;52.056;5.296;2024-02-14T06:37:35;11.50;99.90
68235;DHT22;55052;52.056;5.296;2024-02-14T06:40:14;11.50;99.90
68235;DHT22;55052;52.056;5.296;2024-02-14T06:42:41;11.50;99.90
68235;DHT22;55052;52.056;5.296;2024-02-14T06:45:08;11.50;99.90
68235;DHT22;55052;52.056;5.296;2024-02-14T06:47:35;11.50;99.90
68235;DHT22;55052;52.056;5.296;2024-02-14T06:50:02;11.50;99.90
68235;DHT22;55052;52.056;5.296;2024-02-14T06:52:29;11.50;99.90
68235;DHT22;55052;52.056;5.296;2024-02-14T06:54:56;11.50;99.90
68235;DHT22;55052;52.056;5.296;2024-02-14T06:57:23;11.50;99.90
68235;DHT22;55052;52.056;5.296;2024-02-14T06:59:49;11.50;99.90
68235;DHT22;55052;52.056;5.296;2024-02-14T07:02:16;11.60;99.90
68235;DHT22;55052;52.056;5.296;2024-02-14T07:04:43;11.60;99.90
68235;DHT22;55052;52.056;5.296;2024-02-14T07:07:10;11.60;99.90
68235;DHT22;55052;52.056;5.296;2024-02-14T07:09:37;11.60;99.90
68235;DHT22;55052;52.056;5.296;2024-02-14T07:12:05;11.60;99.90
68235;DHT22;55052;52.056;5.296;2024-02-14T07:14:32;11.60;99.90
68235;DHT22;55052;52.056;5.296;2024-02-14T07:16:59;11.60;99.90
68235;DHT22;55052;52.056;5.296;2024-02-14T07:19:26;11.60;99.90
68235;DHT22;55052;52.056;5.296;2024-02-14T07:21:53;11.60;99.90
68235;DHT22;55052;52.056;5.296;2024-02-14T07:24:20;11.60;99.90
68235;DHT22;55052;52.056;5.296;2024-02-14T07:26:47;11.70;99.90
68235;DHT22;55052;52.056;5.296;2024-02-14T07:29:13;11.70;99.90
68235;DHT22;55052;52.056;5.296;2024-02-14T07:31:40;11.70;99.90
68235;DHT22;55052;52.056;5.296;2024-02-14T07:34:08;11.70;99.90
68235;DHT22;55052;52.056;5.296;2024-02-14T07:36:36;11.70;99.90
68235;DHT22;55052;52.056;5.296;2024-02-14T07:39:02;11.70;99.90
68235;DHT22;55052;52.056;5.296;2024-02-14T07:41:30;11.70;99.90
68235;DHT22;55052;52.056;5.296;2024-02-14T07:43:57;11.70;99.90
68235;DHT22;55052;52.056;5.296;2024-02-14T07:46:24;11.70;99.90
68235;DHT22;55052;52.056;5.296;2024-02-14T07:48:53;11.70;99.90
68235;DHT22;55052;52.056;5.296;2024-02-14T07:51:21;11.70;99.90
68235;DHT22;55052;52.056;5.296;2024-02-14T07:53:49;11.70;99.90
68235;DHT22;55052;52.056;5.296;2024-02-14T07:56:17;11.70;99.90
68235;DHT22;55052;52.056;5.296;2024-02-14T07:58:44;11.70;99.90
68235;DHT22;55052;52.056;5.296;2024-02-14T08:01:12;11.70;99.90
68235;DHT22;55052;52.056;5.296;2024-02-14T08:03:40;11.70;99.90
68235;DHT22;55052;52.056;5.296;2024-02-14T08:06:07;11.80;99.90
68235;DHT22;55052;52.056;5.296;2024-02-14T08:08:35;11.80;99.90
68235;DHT22;55052;52.056;5.296;2024-02-14T08:11:02;11.80;99.90
68235;DHT22;55052;52.056;5.296;2024-02-14T08:13:29;11.80;99.90
68235;DHT22;55052;52.056;5.296;2024-02-14T08:15:56;11.80;99.90
68235;DHT22;55052;52.056;5.296;2024-02-14T08:18:22;11.80;99.90
68235;DHT22;55052;52.056;5.296;2024-02-14T08:20:50;11.80;99.90
68235;DHT22;55052;52.056;5.296;2024-02-14T08:23:17;11.80;99.90
68235;DHT22;55052;52.056;5.296;2024-02-14T08:25:43;11.90;99.90
68235;DHT22;55052;52.056;5.296;2024-02-14T08:28:10;11.90;99.90
68235;DHT22;55052;52.056;5.296;2024-02-14T08:30:37;11.90;99.90
68235;DHT22;55052;52.056;5.296;2024-02-14T08:33:04;11.90;99.90
68235;DHT22;55052;52.056;5.296;2024-02-14T08:35:31;11.90;99.90
68235;DHT22;55052;52.056;5.296;2024-02-14T08:38:04;11.90;99.90
68235;DHT22;55052;52.056;5.296;2024-02-14T08:40:33;11.90;99.90
68235;DHT22;55052;52.056;5.296;2024-02-14T08:42:59;11.90;99.90
68235;DHT22;55052;52.056;5.296;2024-02-14T08:45:26;12.00;99.90
68235;DHT22;55052;52.056;5.296;2024-02-14T08:47:56;12.00;99.90
68235;DHT22;55052;52.056;5.296;2024-02-14T08:50:23;12.00;99.90
68235;DHT22;55052;52.056;5.296;2024-02-14T08:52:50;12.00;99.90
68235;DHT22;55052;52.056;5.296;2024-02-14T08:55:17;12.00;99.90
68235;DHT22;55052;52.056;5.296;2024-02-14T08:57:45;12.00;99.90
68235;DHT22;55052;52.056;5.296;2024-02-14T09:00:15;12.00;99.90
68235;DHT22;55052;52.056;5.296;2024-02-14T09:02:46;12.00;99.90
68235;DHT22;55052;52.056;5.296;2024-02-14T09:05:14;12.10;99.90
68235;DHT22;55052;52.056;5.296;2024-02-14T09:07:41;12.00;99.90
68235;DHT22;55052;52.056;5.296;2024-02-14T09:10:09;12.00;99.90
68235;DHT22;55052;52.056;5.296;2024-02-14T09:12:37;12.00;99.90
68235;DHT22;55052;52.056;5.296;2024-02-14T09:15:04;12.10;99.90
68235;DHT22;55052;52.056;5.296;2024-02-14T09:17:32;12.10;99.90
68235;DHT22;55052;52.056;5.296;2024-02-14T09:20:00;12.00;99.90
68235;DHT22;55052;52.056;5.296;2024-02-14T09:22:28;12.10;99.90
68235;DHT22;55052;52.056;5.296;2024-02-14T09:24:55;12.10;99.90
68235;DHT22;55052;52.056;5.296;2024-02-14T09:27:23;12.10;99.90
68235;DHT22;55052;52.056;5.296;2024-02-14T09:29:50;12.10;99.90
68235;DHT22;55052;52.056;5.296;2024-02-14T09:32:17;12.10;99.90
68235;DHT22;55052;52.056;5.296;2024-02-14T09:34:44;12.10;99.90
68235;DHT22;55052;52.056;5.296;2024-02-14T09:37:12;12.10;99.90
68235;DHT22;55052;52.056;5.296;2024-02-14T09:39:39;12.10;99.90
68235;DHT22;55052;52.056;5.296;2024-02-14T09:42:11;12.10;99.90
68235;DHT22;55052;52.056;5.296;2024-02-14T09:44:40;12.10;99.90
68235;DHT22;55052;52.056;5.296;2024-02-14T09:47:09;12.10;99.90
68235;DHT22;55052;52.056;5.296;2024-02-14T09:49:36;12.10;99.90
68235;DHT22;55052;52.056;5.296;2024-02-14T09:52:04;12.10;99.90
68235;DHT22;55052;52.056;5.296;2024-02-14T09:54:32;12.10;99.90
68235;DHT22;55052;52.056;5.296;2024-02-14T09:57:02;12.10;99.90
68235;DHT22;55052;52.056;5.296;2024-02-14T09:59:29;12.10;99.90
68235;DHT22;55052;52.056;5.296;2024-02-14T10:01:56;12.10;99.90
68235;DHT22;55052;52.056;5.296;2024-02-14T10:04:24;12.20;99.90
68235;DHT22;55052;52.056;5.296;2024-02-14T10:06:52;12.20;99.90
68235;DHT22;55052;52.056;5.296;2024-02-14T10:09:22;12.20;99.90
68235;DHT22;55052;52.056;5.296;2024-02-14T10:11:49;12.20;99.90
68235;DHT22;55052;52.056;5.296;2024-02-14T10:14:16;12.20;99.90
68235;DHT22;55052;52.056;5.296;2024-02-14T10:16:43;12.20;99.90
68235;DHT22;55052;52.056;5.296;2024-02-14T10:19:16;12.20;99.90
68235;DHT22;55052;52.056;5.296;2024-02-14T10:21:54;12.20;99.90
68235;DHT22;55052;52.056;5.296;2024-02-14T10:24:27;12.20;99.90
68235;DHT22;55052;52.056;5.296;2024-02-14T10:26:54;12.20;99.90
68235;DHT22;55052;52.056;5.296;2024-02-14T10:29:25;12.30;99.90
68235;DHT22;55052;52.056;5.296;2024-02-14T10:31:53;12.30;99.90
68235;DHT22;55052;52.056;5.296;2024-02-14T10:34:24;12.30;99.90
68235;DHT22;55052;52.056;5.296;2024-02-14T10:36:53;12.30;99.90
68235;DHT22;55052;52.056;5.296;2024-02-14T10:39:25;12.30;99.90
68235;DHT22;55052;52.056;5.296;2024-02-14T10:41:52;12.30;99.90
68235;DHT22;55052;52.056;5.296;2024-02-14T10:44:20;12.40;99.90
68235;DHT22;55052;52.056;5.296;2024-02-14T10:46:49;12.40;99.90
68235;DHT22;55052;52.056;5.296;2024-02-14T10:49:20;12.40;99.90
68235;DHT22;55052;52.056;5.296;2024-02-14T10:51:48;12.40;99.90
68235;DHT22;55052;52.056;5.296;2024-02-14T10:54:18;12.40;99.90
68235;DHT22;55052;52.056;5.296;2024-02-14T10:56:49;12.50;99.90
68235;DHT22;55052;52.056;5.296;2024-02-14T10:59:20;12.50;99.90
68235;DHT22;55052;52.056;5.296;2024-02-14T11:01:48;12.50;99.90
68235;DHT22;55052;52.056;5.296;2024-02-14T11:04:16;12.60;99.90
68235;DHT22;55052;52.056;5.296;2024-02-14T11:06:52;12.50;99.90
68235;DHT22;55052;52.056;5.296;2024-02-14T11:09:32;12.60;99.90
68235;DHT22;55052;52.056;5.296;2024-02-14T11:12:02;12.60;99.90
68235;DHT22;55052;52.056;5.296;2024-02-14T11:14:33;12.60;99.90
68235;DHT22;55052;52.056;5.296;2024-02-14T11:17:09;12.60;99.90
68235;DHT22;55052;52.056;5.296;2024-02-14T11:19:36;12.60;99.90
68235;DHT22;55052;52.056;5.296;2024-02-14T11:22:11;12.60;99.90
68235;DHT22;55052;52.056;5.296;2024-02-14T11:24:39;12.70;99.90
68235;DHT22;55052;52.056;5.296;2024-02-14T11:27:13;12.70;99.90
68235;DHT22;55052;52.056;5.296;2024-02-14T11:29:59;12.60;99.90
68235;DHT22;55052;52.056;5.296;2024-02-14T11:32:27;12.70;99.90
68235;DHT22;55052;52.056;5.296;2024-02-14T11:34:55;12.70;99.90
68235;DHT22;55052;52.056;5.296;2024-02-14T11:37:29;12.70;99.90
68235;DHT22;55052;52.056;5.296;2024-02-14T11:39:58;12.70;99.90
68235;DHT22;55052;52.056;5.296;2024-02-14T11:42:25;12.70;99.90
68235;DHT22;55052;52.056;5.296;2024-02-14T11:44:53;12.70;99.90
68235;DHT22;55052;52.056;5.296;2024-02-14T11:47:22;12.70;99.90
68235;DHT22;55052;52.056;5.296;2024-02-14T11:49:49;12.70;99.90
68235;DHT22;55052;52.056;5.296;2024-02-14T11:52:17;12.70;99.90
68235;DHT22;55052;52.056;5.296;2024-02-14T11:54:48;12.70;99.90
68235;DHT22;55052;52.056;5.296;2024-02-14T11:57:18;12.80;99.90
68235;DHT22;55052;52.056;5.296;2024-02-14T11:59:48;12.80;99.90
68235;DHT22;55052;52.056;5.296;2024-02-14T12:02:16;12.80;99.90
68235;DHT22;55052;52.056;5.296;2024-02-14T12:04:47;12.80;99.90
68235;DHT22;55052;52.056;5.296;2024-02-14T12:07:14;12.80;99.90
68235;DHT22;55052;52.056;5.296;2024-02-14T12:09:42;12.80;99.90
68235;DHT22;55052;52.056;5.296;2024-02-14T12:12:09;12.80;99.90
68235;DHT22;55052;52.056;5.296;2024-02-14T12:14:36;12.90;99.90
68235;DHT22;55052;52.056;5.296;2024-02-14T12:17:05;12.80;99.90
68235;DHT22;55052;52.056;5.296;2024-02-14T12:19:33;12.90;99.90
68235;DHT22;55052;52.056;5.296;2024-02-14T12:22:01;12.90;99.90
68235;DHT22;55052;52.056;5.296;2024-02-14T12:24:28;12.90;99.90
68235;DHT22;55052;52.056;5.296;2024-02-14T12:26:55;12.90;99.90
68235;DHT22;55052;52.056;5.296;2024-02-14T12:29:24;12.90;99.90
68235;DHT22;55052;52.056;5.296;2024-02-14T12:31:51;12.90;99.90
68235;DHT22;55052;52.056;5.296;2024-02-14T12:34:18;12.90;99.90
68235;DHT22;55052;52.056;5.296;2024-02-14T12:36:51;12.90;99.90
68235;DHT22;55052;52.056;5.296;2024-02-14T12:39:18;12.90;99.90
68235;DHT22;55052;52.056;5.296;2024-02-14T12:41:45;12.90;99.90
68235;DHT22;55052;52.056;5.296;2024-02-14T12:44:12;13.00;99.90
68235;DHT22;55052;52.056;5.296;2024-02-14T12:46:39;13.00;99.90
68235;DHT22;55052;52.056;5.296;2024-02-14T12:49:06;13.00;99.90
68235;DHT22;55052;52.056;5.296;2024-02-14T12:51:33;13.00;99.90
68235;DHT22;55052;52.056;5.296;2024-02-14T12:54:04;13.00;99.90
68235;DHT22;55052;52.056;5.296;2024-02-14T12:56:32;13.00;99.90
68235;DHT22;55052;52.056;5.296;2024-02-14T12:58:59;13.00;99.90
68235;DHT22;55052;52.056;5.296;2024-02-14T13:01:26;13.00;99.90
68235;DHT22;55052;52.056;5.296;2024-02-14T13:03:53;13.00;99.90
68235;DHT22;55052;52.056;5.296;2024-02-14T13:06:20;13.00;99.90
68235;DHT22;55052;52.056;5.296;2024-02-14T13:08:47;13.00;99.90
68235;DHT22;55052;52.056;5.296;2024-02-14T13:11:14;13.00;99.90
68235;DHT22;55052;52.056;5.296;2024-02-14T13:13:43;13.00;99.90
68235;DHT22;55052;52.056;5.296;2024-02-14T13:16:10;13.10;99.90
68235;DHT22;55052;52.056;5.296;2024-02-14T13:18:37;13.10;99.90
68235;DHT22;55052;52.056;5.296;2024-02-14T13:21:05;13.10;99.90
68235;DHT22;55052;52.056;5.296;2024-02-14T13:23:32;13.20;99.90
68235;DHT22;55052;52.056;5.296;2024-02-14T13:25:59;13.10;99.90
68235;DHT22;55052;52.056;5.296;2024-02-14T13:28:26;13.10;99.90
68235;DHT22;55052;52.056;5.296;2024-02-14T13:30:53;13.10;99.90
68235;DHT22;55052;52.056;5.296;2024-02-14T13:33:22;13.10;99.90
68235;DHT22;55052;52.056;5.296;2024-02-14T13:35:49;13.10;99.90
68235;DHT22;55052;52.056;5.296;2024-02-14T13:38:16;13.10;99.90
68235;DHT22;55052;52.056;5.296;2024-02-14T13:40:44;13.10;99.90
68235;DHT22;55052;52.056;5.296;2024-02-14T13:43:10;13.10;99.90
68235;DHT22;55052;52.056;5.296;2024-02-14T13:45:43;13.20;99.90
68235;DHT22;55052;52.056;5.296;2024-02-14T13:48:10;13.20;99.90
68235;DHT22;55052;52.056;5.296;2024-02-14T13:50:38;13.20;99.90
68235;DHT22;55052;52.056;5.296;2024-02-14T13:53:06;13.20;99.90
68235;DHT22;55052;52.056;5.296;2024-02-14T13:55:33;13.20;99.90
68235;DHT22;55052;52.056;5.296;2024-02-14T13:58:00;13.20;99.90
68235;DHT22;55052;52.056;5.296;2024-02-14T14:00:27;13.20;99.90
68235;DHT22;55052;52.056;5.296;2024-02-14T14:02:54;13.20;99.90
68235;DHT22;55052;52.056;5.296;2024-02-14T14:05:22;13.20;99.90
68235;DHT22;55052;52.056;5.296;2024-02-14T14:07:49;13.20;99.90
68235;DHT22;55052;52.056;5.296;2024-02-14T14:10:25;13.30;99.90
68235;DHT22;55052;52.056;5.296;2024-02-14T14:12:53;13.30;99.90
68235;DHT22;55052;52.056;5.296;2024-02-14T14:15:20;13.30;99.90
68235;DHT22;55052;52.056;5.296;2024-02-14T14:17:49;13.30;99.90
68235;DHT22;55052;52.056;5.296;2024-02-14T14:20:17;13.30;99.90
68235;DHT22;55052;52.056;5.296;2024-02-14T14:22:45;13.30;99.90
68235;DHT22;55052;52.056;5.296;2024-02-14T14:25:12;13.30;99.90
68235;DHT22;55052;52.056;5.296;2024-02-14T14:27:39;13.30;99.90
68235;DHT22;55052;52.056;5.296;2024-02-14T14:30:06;13.30;99.90
68235;DHT22;55052;52.056;5.296;2024-02-14T14:32:34;13.30;99.90
68235;DHT22;55052;52.056;5.296;2024-02-14T14:35:01;13.30;99.90
68235;DHT22;55052;52.056;5.296;2024-02-14T14:37:28;13.40;99.90
68235;DHT22;55052;52.056;5.296;2024-02-14T14:39:55;13.40;99.90
68235;DHT22;55052;52.056;5.296;2024-02-14T14:42:23;13.30;99.90
68235;DHT22;55052;52.056;5.296;2024-02-14T14:44:50;13.40;99.90
68235;DHT22;55052;52.056;5.296;2024-02-14T14:47:17;13.40;99.90
68235;DHT22;55052;52.056;5.296;2024-02-14T14:49:44;13.40;99.90
68235;DHT22;55052;52.056;5.296;2024-02-14T14:52:10;13.40;99.90
68235;DHT22;55052;52.056;5.296;2024-02-14T14:54:37;13.50;99.90
68235;DHT22;55052;52.056;5.296;2024-02-14T14:57:04;13.50;99.90
68235;DHT22;55052;52.056;5.296;2024-02-14T14:59:38;13.50;99.90
68235;DHT22;55052;52.056;5.296;2024-02-14T15:02:05;13.50;99.90
68235;DHT22;55052;52.056;5.296;2024-02-14T15:04:32;13.50;99.90
68235;DHT22;55052;52.056;5.296;2024-02-14T15:07:01;13.50;99.90
68235;DHT22;55052;52.056;5.296;2024-02-14T15:09:29;13.50;99.90
68235;DHT22;55052;52.056;5.296;2024-02-14T15:11:58;13.50;99.90
68235;DHT22;55052;52.056;5.296;2024-02-14T15:14:25;13.50;99.90
68235;DHT22;55052;52.056;5.296;2024-02-14T15:16:53;13.50;99.90
68235;DHT22;55052;52.056;5.296;2024-02-14T15:19:20;13.50;99.90
68235;DHT22;55052;52.056;5.296;2024-02-14T15:21:48;13.60;99.90
68235;DHT22;55052;52.056;5.296;2024-02-14T15:24:16;13.60;99.90
68235;DHT22;55052;52.056;5.296;2024-02-14T15:26:43;13.60;99.90
68235;DHT22;55052;52.056;5.296;2024-02-14T15:29:17;13.60;99.90
68235;DHT22;55052;52.056;5.296;2024-02-14T15:32:04;13.60;99.90
68235;DHT22;55052;52.056;5.296;2024-02-14T15:34:49;13.50;99.90
68235;DHT22;55052;52.056;5.296;2024-02-14T15:37:16;13.60;99.90